sensor_id;sensor_type;location;lat;lon;timestamp;P1;durP1;ratioP1;P2;durP2;ratioP2
40793;SDS011;26502;51.886;15.604;2024-03-23T00:58:24;68.90;;;39.40;;
40793;SDS011;26502;51.886;15.604;2024-03-23T01:03:50;56.60;;;36.00;;
40793;SDS011;26502;51.886;15.604;2024-03-23T01:09:16;50.50;;;34.70;;
40793;SDS011;26502;51.886;15.604;2024-03-23T01:14:44;58.00;;;34.40;;
40793;SDS011;26502;51.886;15.604;2024-03-23T01:20:10;51.00;;;33.90;;
40793;SDS011;26502;51.886;15.604;2024-03-23T01:25:35;55.00;;;33.10;;
40793;SDS011;26502;51.886;15.604;2024-03-23T01:31:02;51.20;;;32.80;;
40793;SDS011;26502;51.886;15.604;2024-03-23T01:36:27;57.40;;;36.00;;
40793;SDS011;26502;51.886;15.604;2024-03-23T01:41:53;60.90;;;38.00;;
40793;SDS011;26502;51.886;15.604;2024-03-23T01:47:19;56.70;;;35.80;;
40793;SDS011;26502;51.886;15.604;2024-03-23T01:52:45;59.20;;;35.70;;
40793;SDS011;26502;51.886;15.604;2024-03-23T01:58:11;54.90;;;36.10;;
40793;SDS011;26502;51.886;15.604;2024-03-23T02:03:37;62.20;;;36.60;;
40793;SDS011;26502;51.886;15.604;2024-03-23T02:09:02;64.00;;;39.40;;
40793;SDS011;26502;51.886;15.604;2024-03-23T02:14:28;61.80;;;36.80;;
40793;SDS011;26502;51.886;15.604;2024-03-23T02:19:55;56.40;;;36.50;;
40793;SDS011;26502;51.886;15.604;2024-03-23T02:25:21;62.30;;;40.20;;
40793;SDS011;26502;51.886;15.604;2024-03-23T02:30:47;64.20;;;39.40;;
40793;SDS011;26502;51.886;15.604;2024-03-23T02:36:13;58.60;;;37.00;;
40793;SDS011;26502;51.886;15.604;2024-03-23T02:41:38;69.40;;;42.90;;
40793;SDS011;26502;51.886;15.604;2024-03-23T02:47:06;62.00;;;37.90;;
40793;SDS011;26502;51.886;15.604;2024-03-23T02:52:31;51.00;;;34.90;;
40793;SDS011;26502;51.886;15.604;2024-03-23T02:57:57;54.80;;;38.00;;
40793;SDS011;26502;51.886;15.604;2024-03-23T03:03:24;56.00;;;37.30;;
40793;SDS011;26502;51.886;15.604;2024-03-23T03:08:52;64.40;;;40.10;;
40793;SDS011;26502;51.886;15.604;2024-03-23T03:14:18;47.10;;;31.30;;
40793;SDS011;26502;51.886;15.604;2024-03-23T03:19:44;44.40;;;30.20;;
40793;SDS011;26502;51.886;15.604;2024-03-23T03:25:11;42.10;;;27.90;;
40793;SDS011;26502;51.886;15.604;2024-03-23T03:30:37;37.60;;;26.10;;
40793;SDS011;26502;51.886;15.604;2024-03-23T03:36:03;35.40;;;24.20;;
40793;SDS011;26502;51.886;15.604;2024-03-23T03:41:29;37.90;;;24.80;;
40793;SDS011;26502;51.886;15.604;2024-03-23T03:46:55;31.70;;;23.10;;
40793;SDS011;26502;51.886;15.604;2024-03-23T03:52:20;31.10;;;22.90;;
40793;SDS011;26502;51.886;15.604;2024-03-23T03:57:46;29.70;;;22.30;;
40793;SDS011;26502;51.886;15.604;2024-03-23T04:03:12;30.90;;;22.40;;
40793;SDS011;26502;51.886;15.604;2024-03-23T04:08:38;27.50;;;20.10;;
40793;SDS011;26502;51.886;15.604;2024-03-23T04:14:03;11.60;;;8.60;;
40793;SDS011;26502;51.886;15.604;2024-03-23T04:19:29;10.00;;;5.70;;
40793;SDS011;26502;51.886;15.604;2024-03-23T04:24:55;7.90;;;3.90;;
40793;SDS011;26502;51.886;15.604;2024-03-23T04:30:20;4.70;;;3.10;;
40793;SDS011;26502;51.886;15.604;2024-03-23T04:35:49;6.10;;;3.00;;
40793;SDS011;26502;51.886;15.604;2024-03-23T04:41:15;5.10;;;2.80;;
40793;SDS011;26502;51.886;15.604;2024-03-23T04:46:41;8.10;;;2.70;;
40793;SDS011;26502;51.886;15.604;2024-03-23T04:52:06;5.80;;;2.20;;
40793;SDS011;26502;51.886;15.604;2024-03-23T04:57:32;3.60;;;2.50;;
40793;SDS011;26502;51.886;15.604;2024-03-23T05:02:59;5.90;;;2.70;;
40793;SDS011;26502;51.886;15.604;2024-03-23T05:08:26;5.60;;;2.30;;
40793;SDS011;26502;51.886;15.604;2024-03-23T05:13:52;5.70;;;1.90;;
40793;SDS011;26502;51.886;15.604;2024-03-23T05:19:18;5.80;;;1.80;;
40793;SDS011;26502;51.886;15.604;2024-03-23T05:24:44;5.70;;;2.20;;
40793;SDS011;26502;51.886;15.604;2024-03-23T05:30:11;6.60;;;2.10;;
40793;SDS011;26502;51.886;15.604;2024-03-23T05:35:38;3.20;;;1.70;;
40793;SDS011;26502;51.886;15.604;2024-03-23T05:41:03;5.20;;;2.10;;
40793;SDS011;26502;51.886;15.604;2024-03-23T05:46:29;4.90;;;1.90;;
40793;SDS011;26502;51.886;15.604;2024-03-23T05:51:57;6.50;;;2.40;;
40793;SDS011;26502;51.886;15.604;2024-03-23T05:57:25;4.50;;;2.20;;
40793;SDS011;26502;51.886;15.604;2024-03-23T06:02:51;9.40;;;2.30;;
40793;SDS011;26502;51.886;15.604;2024-03-23T06:08:17;9.50;;;4.80;;
40793;SDS011;26502;51.886;15.604;2024-03-23T06:13:43;8.10;;;4.80;;
40793;SDS011;26502;51.886;15.604;2024-03-23T06:19:08;7.30;;;2.90;;
40793;SDS011;26502;51.886;15.604;2024-03-23T06:24:34;10.10;;;2.90;;
40793;SDS011;26502;51.886;15.604;2024-03-23T06:30:00;8.70;;;2.70;;
40793;SDS011;26502;51.886;15.604;2024-03-23T06:35:26;8.00;;;3.10;;
40793;SDS011;26502;51.886;15.604;2024-03-23T06:40:52;11.00;;;3.10;;
40793;SDS011;26502;51.886;15.604;2024-03-23T06:46:17;7.20;;;3.10;;
40793;SDS011;26502;51.886;15.604;2024-03-23T06:51:43;8.30;;;2.70;;
40793;SDS011;26502;51.886;15.604;2024-03-23T06:57:12;6.60;;;3.00;;
40793;SDS011;26502;51.886;15.604;2024-03-23T07:02:38;11.50;;;3.90;;
40793;SDS011;26502;51.886;15.604;2024-03-23T07:08:03;7.90;;;3.90;;
40793;SDS011;26502;51.886;15.604;2024-03-23T07:13:30;7.60;;;3.00;;
40793;SDS011;26502;51.886;15.604;2024-03-23T07:18:55;8.50;;;3.70;;
40793;SDS011;26502;51.886;15.604;2024-03-23T07:24:21;10.00;;;3.40;;
40793;SDS011;26502;51.886;15.604;2024-03-23T07:29:47;8.30;;;3.50;;
40793;SDS011;26502;51.886;15.604;2024-03-23T07:35:13;6.40;;;3.00;;
40793;SDS011;26502;51.886;15.604;2024-03-23T07:40:39;10.60;;;3.70;;
40793;SDS011;26502;51.886;15.604;2024-03-23T07:46:04;8.80;;;3.50;;
40793;SDS011;26502;51.886;15.604;2024-03-23T07:51:30;7.80;;;3.50;;
40793;SDS011;26502;51.886;15.604;2024-03-23T07:56:57;8.40;;;4.50;;
40793;SDS011;26502;51.886;15.604;2024-03-23T08:02:23;11.80;;;4.40;;
40793;SDS011;26502;51.886;15.604;2024-03-23T08:07:51;9.90;;;5.00;;
40793;SDS011;26502;51.886;15.604;2024-03-23T08:13:17;12.10;;;5.90;;
40793;SDS011;26502;51.886;15.604;2024-03-23T08:18:43;11.90;;;5.50;;
40793;SDS011;26502;51.886;15.604;2024-03-23T08:24:08;14.10;;;5.80;;
40793;SDS011;26502;51.886;15.604;2024-03-23T08:29:34;11.50;;;4.90;;
40793;SDS011;26502;51.886;15.604;2024-03-23T08:34:59;13.90;;;5.60;;
40793;SDS011;26502;51.886;15.604;2024-03-23T08:40:25;12.50;;;4.70;;
40793;SDS011;26502;51.886;15.604;2024-03-23T08:45:50;10.40;;;5.50;;
40793;SDS011;26502;51.886;15.604;2024-03-23T08:51:19;14.50;;;6.30;;
40793;SDS011;26502;51.886;15.604;2024-03-23T08:56:44;10.90;;;7.20;;
40793;SDS011;26502;51.886;15.604;2024-03-23T09:02:10;17.80;;;9.00;;
40793;SDS011;26502;51.886;15.604;2024-03-23T09:07:35;17.60;;;9.10;;
40793;SDS011;26502;51.886;15.604;2024-03-23T09:13:01;18.50;;;9.60;;
40793;SDS011;26502;51.886;15.604;2024-03-23T09:18:27;19.50;;;10.10;;
40793;SDS011;26502;51.886;15.604;2024-03-23T09:23:55;18.50;;;9.60;;
40793;SDS011;26502;51.886;15.604;2024-03-23T09:29:21;18.80;;;10.60;;
40793;SDS011;26502;51.886;15.604;2024-03-23T09:34:47;16.60;;;9.70;;
40793;SDS011;26502;51.886;15.604;2024-03-23T09:40:13;23.90;;;10.20;;
40793;SDS011;26502;51.886;15.604;2024-03-23T09:45:39;17.50;;;9.10;;
40793;SDS011;26502;51.886;15.604;2024-03-23T09:51:07;17.60;;;9.60;;
40793;SDS011;26502;51.886;15.604;2024-03-23T09:56:33;18.70;;;9.20;;
40793;SDS011;26502;51.886;15.604;2024-03-23T10:01:59;13.20;;;8.10;;
40793;SDS011;26502;51.886;15.604;2024-03-23T10:07:25;11.60;;;7.30;;
40793;SDS011;26502;51.886;15.604;2024-03-23T10:12:52;13.50;;;7.70;;
40793;SDS011;26502;51.886;15.604;2024-03-23T10:18:18;10.70;;;7.30;;
40793;SDS011;26502;51.886;15.604;2024-03-23T10:23:45;9.50;;;6.60;;
40793;SDS011;26502;51.886;15.604;2024-03-23T10:29:13;9.90;;;6.60;;
40793;SDS011;26502;51.886;15.604;2024-03-23T10:34:42;11.40;;;7.20;;
40793;SDS011;26502;51.886;15.604;2024-03-23T10:40:10;11.60;;;6.50;;
40793;SDS011;26502;51.886;15.604;2024-03-23T10:45:39;11.70;;;8.10;;
40793;SDS011;26502;51.886;15.604;2024-03-23T10:51:05;13.90;;;7.90;;
40793;SDS011;26502;51.886;15.604;2024-03-23T10:56:34;12.10;;;6.90;;
40793;SDS011;26502;51.886;15.604;2024-03-23T11:02:03;10.40;;;8.10;;
40793;SDS011;26502;51.886;15.604;2024-03-23T11:07:31;11.40;;;7.40;;
40793;SDS011;26502;51.886;15.604;2024-03-23T11:12:57;11.90;;;8.70;;
40793;SDS011;26502;51.886;15.604;2024-03-23T11:18:44;11.20;;;8.70;;
40793;SDS011;26502;51.886;15.604;2024-03-23T11:24:15;11.10;;;8.00;;
40793;SDS011;26502;51.886;15.604;2024-03-23T11:29:42;11.60;;;8.20;;
40793;SDS011;26502;51.886;15.604;2024-03-23T11:35:08;11.60;;;8.90;;
40793;SDS011;26502;51.886;15.604;2024-03-23T11:40:35;11.40;;;8.60;;
40793;SDS011;26502;51.886;15.604;2024-03-23T11:46:01;11.90;;;7.60;;
40793;SDS011;26502;51.886;15.604;2024-03-23T11:51:30;8.50;;;6.20;;
40793;SDS011;26502;51.886;15.604;2024-03-23T11:56:59;2.60;;;2.20;;
40793;SDS011;26502;51.886;15.604;2024-03-23T12:02:26;2.40;;;1.70;;
40793;SDS011;26502;51.886;15.604;2024-03-23T12:07:52;1.60;;;1.20;;
40793;SDS011;26502;51.886;15.604;2024-03-23T12:13:18;1.10;;;1.00;;
40793;SDS011;26502;51.886;15.604;2024-03-23T12:18:46;2.80;;;1.40;;
40793;SDS011;26502;51.886;15.604;2024-03-23T12:24:13;1.30;;;1.00;;
40793;SDS011;26502;51.886;15.604;2024-03-23T12:29:39;1.70;;;0.80;;
40793;SDS011;26502;51.886;15.604;2024-03-23T12:35:06;0.50;;;0.50;;
40793;SDS011;26502;51.886;15.604;2024-03-23T12:40:32;1.40;;;1.20;;
40793;SDS011;26502;51.886;15.604;2024-03-23T12:45:59;2.00;;;1.30;;
40793;SDS011;26502;51.886;15.604;2024-03-23T12:51:27;0.70;;;0.60;;
40793;SDS011;26502;51.886;15.604;2024-03-23T12:56:53;1.30;;;0.80;;
40793;SDS011;26502;51.886;15.604;2024-03-23T13:02:19;0.70;;;0.70;;
40793;SDS011;26502;51.886;15.604;2024-03-23T13:07:45;1.00;;;0.60;;
40793;SDS011;26502;51.886;15.604;2024-03-23T13:13:12;1.50;;;0.90;;
40793;SDS011;26502;51.886;15.604;2024-03-23T13:18:38;1.30;;;0.80;;
40793;SDS011;26502;51.886;15.604;2024-03-23T13:24:04;1.20;;;1.00;;
40793;SDS011;26502;51.886;15.604;2024-03-23T13:29:31;0.90;;;0.90;;
40793;SDS011;26502;51.886;15.604;2024-03-23T13:34:58;1.10;;;1.00;;
40793;SDS011;26502;51.886;15.604;2024-03-23T13:40:24;1.00;;;0.70;;
40793;SDS011;26502;51.886;15.604;2024-03-23T13:45:51;3.40;;;1.20;;
40793;SDS011;26502;51.886;15.604;2024-03-23T13:51:22;0.90;;;0.70;;
40793;SDS011;26502;51.886;15.604;2024-03-23T13:56:50;1.40;;;0.90;;
40793;SDS011;26502;51.886;15.604;2024-03-23T14:02:17;1.00;;;0.80;;
40793;SDS011;26502;51.886;15.604;2024-03-23T14:07:42;1.40;;;1.00;;
40793;SDS011;26502;51.886;15.604;2024-03-23T14:13:08;1.10;;;1.00;;
40793;SDS011;26502;51.886;15.604;2024-03-23T14:18:33;1.30;;;1.20;;
40793;SDS011;26502;51.886;15.604;2024-03-23T14:23:59;0.90;;;0.90;;
40793;SDS011;26502;51.886;15.604;2024-03-23T14:29:25;2.20;;;1.50;;
40793;SDS011;26502;51.886;15.604;2024-03-23T14:34:51;3.40;;;1.30;;
40793;SDS011;26502;51.886;15.604;2024-03-23T14:40:19;3.80;;;1.40;;
40793;SDS011;26502;51.886;15.604;2024-03-23T14:46:05;3.70;;;1.60;;
40793;SDS011;26502;51.886;15.604;2024-03-23T14:51:32;1.60;;;1.50;;
40793;SDS011;26502;51.886;15.604;2024-03-23T14:56:57;2.20;;;1.30;;
40793;SDS011;26502;51.886;15.604;2024-03-23T15:02:23;2.50;;;1.40;;
40793;SDS011;26502;51.886;15.604;2024-03-23T15:07:50;3.60;;;1.70;;
40793;SDS011;26502;51.886;15.604;2024-03-23T15:13:15;3.70;;;1.70;;
40793;SDS011;26502;51.886;15.604;2024-03-23T15:18:41;1.50;;;1.20;;
40793;SDS011;26502;51.886;15.604;2024-03-23T15:24:07;2.70;;;1.50;;
40793;SDS011;26502;51.886;15.604;2024-03-23T15:29:33;6.30;;;2.00;;
40793;SDS011;26502;51.886;15.604;2024-03-23T15:34:59;4.10;;;1.80;;
40793;SDS011;26502;51.886;15.604;2024-03-23T15:40:25;3.40;;;2.10;;
40793;SDS011;26502;51.886;15.604;2024-03-23T15:45:57;3.50;;;1.70;;
40793;SDS011;26502;51.886;15.604;2024-03-23T15:56:54;7.00;;;1.70;;
40793;SDS011;26502;51.886;15.604;2024-03-23T16:02:19;5.20;;;2.40;;
40793;SDS011;26502;51.886;15.604;2024-03-23T16:07:45;10.20;;;3.00;;
40793;SDS011;26502;51.886;15.604;2024-03-23T16:13:11;30.80;;;11.40;;
40793;SDS011;26502;51.886;15.604;2024-03-23T16:18:38;9.30;;;3.60;;
40793;SDS011;26502;51.886;15.604;2024-03-23T16:24:04;61.10;;;37.50;;
40793;SDS011;26502;51.886;15.604;2024-03-23T16:29:30;6.40;;;5.80;;
40793;SDS011;26502;51.886;15.604;2024-03-23T16:34:56;9.30;;;3.00;;
40793;SDS011;26502;51.886;15.604;2024-03-23T16:40:22;7.00;;;3.10;;
40793;SDS011;26502;51.886;15.604;2024-03-23T16:45:52;9.70;;;3.20;;
40793;SDS011;26502;51.886;15.604;2024-03-23T16:51:22;7.20;;;2.40;;
40793;SDS011;26502;51.886;15.604;2024-03-23T16:56:48;8.00;;;5.00;;
40793;SDS011;26502;51.886;15.604;2024-03-23T17:02:14;11.30;;;5.00;;
40793;SDS011;26502;51.886;15.604;2024-03-23T17:07:40;10.40;;;5.80;;
40793;SDS011;26502;51.886;15.604;2024-03-23T17:13:07;8.30;;;3.40;;
40793;SDS011;26502;51.886;15.604;2024-03-23T17:18:33;9.80;;;4.00;;
40793;SDS011;26502;51.886;15.604;2024-03-23T17:23:59;19.50;;;10.00;;
40793;SDS011;26502;51.886;15.604;2024-03-23T17:29:25;10.60;;;3.20;;
40793;SDS011;26502;51.886;15.604;2024-03-23T17:34:51;7.70;;;3.40;;
40793;SDS011;26502;51.886;15.604;2024-03-23T17:40:16;6.50;;;2.80;;
40793;SDS011;26502;51.886;15.604;2024-03-23T17:45:42;6.00;;;3.60;;
40793;SDS011;26502;51.886;15.604;2024-03-23T17:51:11;5.40;;;2.30;;
40793;SDS011;26502;51.886;15.604;2024-03-23T17:56:42;22.70;;;12.40;;
40793;SDS011;26502;51.886;15.604;2024-03-23T18:02:07;16.10;;;9.60;;
40793;SDS011;26502;51.886;15.604;2024-03-23T18:07:33;18.70;;;8.70;;
40793;SDS011;26502;51.886;15.604;2024-03-23T18:12:58;16.30;;;8.50;;
40793;SDS011;26502;51.886;15.604;2024-03-23T18:18:24;12.20;;;6.80;;
40793;SDS011;26502;51.886;15.604;2024-03-23T18:23:51;10.30;;;5.40;;
40793;SDS011;26502;51.886;15.604;2024-03-23T18:29:19;10.20;;;4.50;;
40793;SDS011;26502;51.886;15.604;2024-03-23T18:34:45;9.30;;;5.50;;
40793;SDS011;26502;51.886;15.604;2024-03-23T18:40:12;10.20;;;5.30;;
40793;SDS011;26502;51.886;15.604;2024-03-23T18:45:46;7.60;;;4.50;;
40793;SDS011;26502;51.886;15.604;2024-03-23T18:51:12;7.80;;;4.10;;
40793;SDS011;26502;51.886;15.604;2024-03-23T18:56:38;11.60;;;5.80;;
40793;SDS011;26502;51.886;15.604;2024-03-23T19:02:04;15.00;;;7.70;;
40793;SDS011;26502;51.886;15.604;2024-03-23T19:07:30;11.70;;;5.60;;
40793;SDS011;26502;51.886;15.604;2024-03-23T19:12:57;10.10;;;4.20;;
40793;SDS011;26502;51.886;15.604;2024-03-23T19:18:23;9.10;;;4.40;;
40793;SDS011;26502;51.886;15.604;2024-03-23T19:23:49;11.80;;;5.10;;
40793;SDS011;26502;51.886;15.604;2024-03-23T19:29:14;11.70;;;5.70;;
40793;SDS011;26502;51.886;15.604;2024-03-23T19:34:40;68.20;;;27.50;;
40793;SDS011;26502;51.886;15.604;2024-03-23T19:40:08;30.40;;;23.90;;
40793;SDS011;26502;51.886;15.604;2024-03-23T19:45:35;20.00;;;10.60;;
40793;SDS011;26502;51.886;15.604;2024-03-23T19:51:01;13.80;;;7.70;;
40793;SDS011;26502;51.886;15.604;2024-03-23T19:56:27;15.40;;;8.70;;
40793;SDS011;26502;51.886;15.604;2024-03-23T20:01:52;13.10;;;7.60;;
40793;SDS011;26502;51.886;15.604;2024-03-23T20:07:18;9.70;;;6.10;;
40793;SDS011;26502;51.886;15.604;2024-03-23T20:12:43;10.40;;;7.20;;
40793;SDS011;26502;51.886;15.604;2024-03-23T20:18:09;24.60;;;10.90;;
40793;SDS011;26502;51.886;15.604;2024-03-23T20:23:35;27.70;;;14.40;;
40793;SDS011;26502;51.886;15.604;2024-03-23T20:29:00;33.70;;;18.00;;
40793;SDS011;26502;51.886;15.604;2024-03-23T20:34:27;37.00;;;20.70;;
40793;SDS011;26502;51.886;15.604;2024-03-23T20:39:53;43.20;;;21.20;;
40793;SDS011;26502;51.886;15.604;2024-03-23T20:45:18;49.50;;;25.80;;
40793;SDS011;26502;51.886;15.604;2024-03-23T20:50:44;50.60;;;28.90;;
40793;SDS011;26502;51.886;15.604;2024-03-23T20:56:18;64.00;;;32.00;;
40793;SDS011;26502;51.886;15.604;2024-03-23T21:01:44;50.70;;;30.60;;
40793;SDS011;26502;51.886;15.604;2024-03-23T21:07:10;54.60;;;31.70;;
40793;SDS011;26502;51.886;15.604;2024-03-23T21:12:36;49.20;;;28.40;;
40793;SDS011;26502;51.886;15.604;2024-03-23T21:18:02;43.30;;;24.50;;
40793;SDS011;26502;51.886;15.604;2024-03-23T21:23:29;33.40;;;19.10;;
40793;SDS011;26502;51.886;15.604;2024-03-23T21:28:56;18.70;;;12.10;;
40793;SDS011;26502;51.886;15.604;2024-03-23T21:34:24;20.30;;;14.00;;
40793;SDS011;26502;51.886;15.604;2024-03-23T21:39:49;25.50;;;13.70;;
40793;SDS011;26502;51.886;15.604;2024-03-23T21:45:15;21.60;;;12.90;;
40793;SDS011;26502;51.886;15.604;2024-03-23T21:50:41;30.60;;;16.30;;
40793;SDS011;26502;51.886;15.604;2024-03-23T21:56:06;38.00;;;19.80;;
40793;SDS011;26502;51.886;15.604;2024-03-23T22:01:32;33.60;;;17.40;;
40793;SDS011;26502;51.886;15.604;2024-03-23T22:06:57;30.00;;;15.40;;
40793;SDS011;26502;51.886;15.604;2024-03-23T22:12:23;23.40;;;14.10;;
40793;SDS011;26502;51.886;15.604;2024-03-23T22:17:51;16.20;;;9.10;;
40793;SDS011;26502;51.886;15.604;2024-03-23T22:23:17;12.20;;;8.10;;
40793;SDS011;26502;51.886;15.604;2024-03-23T22:28:45;19.10;;;9.00;;
40793;SDS011;26502;51.886;15.604;2024-03-23T22:34:11;15.00;;;8.00;;
40793;SDS011;26502;51.886;15.604;2024-03-23T22:39:36;13.80;;;7.70;;
40793;SDS011;26502;51.886;15.604;2024-03-23T22:45:02;12.40;;;6.80;;
40793;SDS011;26502;51.886;15.604;2024-03-23T22:50:31;10.70;;;6.70;;
40793;SDS011;26502;51.886;15.604;2024-03-23T22:55:56;14.50;;;7.10;;
40793;SDS011;26502;51.886;15.604;2024-03-23T23:01:22;14.70;;;7.00;;
40793;SDS011;26502;51.886;15.604;2024-03-23T23:06:48;9.60;;;6.20;;
40793;SDS011;26502;51.886;15.604;2024-03-23T23:12:13;10.40;;;6.60;;
40793;SDS011;26502;51.886;15.604;2024-03-23T23:17:39;12.80;;;6.90;;
40793;SDS011;26502;51.886;15.604;2024-03-23T23:23:05;14.00;;;7.00;;
40793;SDS011;26502;51.886;15.604;2024-03-23T23:28:33;10.10;;;7.30;;
40793;SDS011;26502;51.886;15.604;2024-03-23T23:33:58;14.70;;;7.50;;
40793;SDS011;26502;51.886;15.604;2024-03-23T23:39:24;14.70;;;7.10;;
40793;SDS011;26502;51.886;15.604;2024-03-23T23:44:50;13.50;;;7.00;;
40793;SDS011;26502;51.886;15.604;2024-03-23T23:50:16;18.20;;;9.80;;
40793;SDS011;26502;51.886;15.604;2024-03-23T23:55:43;17.00;;;9.10;;
